createdAt,value
2019-06-26T00:01:11.055Z,83.80
2019-06-26T00:03:41.329Z,83.70
2019-06-26T00:06:12.154Z,83.70
2019-06-26T00:08:42.285Z,84.00
2019-06-26T00:11:21.553Z,84.00
2019-06-26T00:13:49.859Z,83.90
2019-06-26T00:16:20.699Z,83.80
2019-06-26T00:18:51.533Z,83.80
2019-06-26T00:21:22.110Z,84.00
2019-06-26T00:24:01.702Z,84.00
2019-06-26T00:26:27.017Z,83.90
2019-06-26T00:28:58.483Z,84.00
2019-06-26T00:31:28.802Z,84.20
2019-06-26T00:33:59.158Z,84.00
2019-06-26T00:36:30.108Z,84.10
2019-06-26T00:39:01.018Z,84.10
2019-06-26T00:41:32.788Z,84.30
2019-06-26T00:44:03.709Z,84.20
2019-06-26T00:46:34.402Z,84.30
2019-06-26T00:49:06.698Z,84.60
2019-06-26T00:51:37.534Z,84.50
2019-06-26T00:54:07.699Z,84.30
2019-06-26T00:56:38.436Z,84.50
2019-06-26T00:59:17.339Z,84.60
2019-06-26T01:01:42.198Z,85.40
2019-06-26T01:04:14.637Z,84.70
2019-06-26T01:06:45.475Z,84.70
2019-06-26T01:09:16.219Z,84.70
2019-06-26T01:11:48.700Z,84.60
2019-06-26T01:14:19.492Z,84.60
2019-06-26T01:16:53.453Z,84.70
2019-06-26T01:19:24.342Z,84.80
2019-06-26T01:21:55.318Z,84.60
2019-06-26T01:24:26.105Z,84.70
2019-06-26T01:26:58.549Z,84.70
2019-06-26T01:29:34.247Z,84.60
2019-06-26T01:32:01.406Z,84.60
2019-06-26T01:34:31.766Z,84.80
2019-06-26T01:37:02.578Z,84.80
2019-06-26T01:39:32.941Z,84.80
2019-06-26T01:42:03.458Z,84.90
2019-06-26T01:44:35.255Z,84.90
2019-06-26T01:47:10.809Z,84.90
2019-06-26T01:49:43.165Z,84.90
2019-06-26T01:52:14.100Z,85.00
2019-06-26T01:54:52.204Z,85.00
2019-06-26T01:57:20.439Z,85.00
2019-06-26T01:59:52.936Z,85.00
2019-06-26T02:02:23.847Z,85.10
2019-06-26T02:04:54.196Z,84.90
2019-06-26T02:07:26.184Z,85.10
2019-06-26T02:09:57.775Z,85.00
2019-06-26T02:12:31.614Z,85.10
2019-06-26T02:15:02.254Z,84.90
2019-06-26T02:17:33.784Z,85.10
2019-06-26T02:20:12.216Z,85.10
2019-06-26T02:22:39.763Z,85.30
2019-06-26T02:25:12.973Z,85.40
2019-06-26T02:27:43.330Z,85.40
2019-06-26T02:30:16.574Z,85.40
2019-06-26T02:32:49.132Z,85.70
2019-06-26T02:35:24.810Z,85.60
2019-06-26T02:37:57.295Z,85.70
2019-06-26T02:40:42.956Z,85.80
2019-06-26T02:43:10.014Z,85.90
2019-06-26T02:45:41.178Z,85.90
2019-06-26T02:48:14.898Z,86.20
2019-06-26T02:50:49.295Z,85.70
2019-06-26T02:53:26.535Z,84.50
2019-06-26T02:55:57.431Z,85.10
2019-06-26T02:58:29.614Z,85.40
2019-06-26T03:01:12.473Z,85.40
2019-06-26T03:03:45.571Z,85.70
2019-06-26T03:06:16.509Z,85.50
2019-06-26T03:08:54.818Z,85.70
2019-06-26T03:11:23.015Z,85.80
2019-06-26T03:13:53.230Z,85.90
2019-06-26T03:16:23.623Z,86.00
2019-06-26T03:18:53.872Z,86.00
2019-06-26T03:21:25.942Z,86.10
2019-06-26T03:23:57.729Z,85.90
2019-06-26T03:26:30.957Z,86.10
2019-06-26T03:29:01.878Z,86.20
2019-06-26T03:31:32.841Z,86.40
2019-06-26T03:34:03.174Z,86.30
2019-06-26T03:36:33.393Z,86.10
2019-06-26T03:39:09.788Z,85.90
2019-06-26T03:41:39.971Z,85.90
2019-06-26T03:44:10.789Z,86.00
2019-06-26T03:46:42.680Z,86.20
2019-06-26T03:49:13.419Z,86.40
2019-06-26T03:51:51.067Z,86.60
2019-06-26T03:54:17.316Z,86.80
2019-06-26T03:56:48.247Z,86.70
2019-06-26T03:59:18.581Z,86.70
2019-06-26T04:01:49.360Z,87.20
2019-06-26T04:04:22.666Z,87.00
2019-06-26T04:06:53.151Z,87.00
2019-06-26T04:09:25.310Z,86.90
2019-06-26T04:11:56.218Z,86.70
2019-06-26T04:14:27.132Z,86.50
2019-06-26T04:16:57.381Z,86.60
2019-06-26T04:19:28.100Z,86.60
2019-06-26T04:21:58.527Z,87.00
2019-06-26T04:24:29.389Z,86.80
2019-06-26T04:26:59.559Z,87.00
2019-06-26T04:29:31.410Z,86.90
2019-06-26T04:32:01.843Z,86.90
2019-06-26T04:34:33.133Z,86.60
2019-06-26T04:37:05.648Z,86.90
2019-06-26T04:39:37.803Z,86.90
2019-06-26T04:42:08.719Z,86.90
2019-06-26T04:44:42.011Z,87.10
2019-06-26T04:47:12.735Z,87.00
2019-06-26T04:49:45.079Z,87.40
2019-06-26T04:52:15.329Z,87.10
2019-06-26T04:54:46.238Z,87.00
2019-06-26T04:57:19.247Z,87.00
2019-06-26T04:59:49.620Z,87.10
2019-06-26T05:02:20.358Z,87.00
2019-06-26T05:04:50.524Z,87.20
2019-06-26T05:07:24.335Z,87.00
2019-06-26T05:09:53.159Z,87.20
2019-06-26T05:12:27.436Z,87.20
2019-06-26T05:14:57.621Z,87.70
2019-06-26T05:17:28.447Z,87.00
2019-06-26T05:19:58.548Z,87.40
2019-06-26T05:22:28.811Z,87.20
2019-06-26T05:24:59.568Z,87.40
2019-06-26T05:27:30.484Z,87.20
2019-06-26T05:30:03.417Z,87.40
2019-06-26T05:32:35.408Z,87.70
2019-06-26T05:35:09.149Z,87.40
2019-06-26T05:37:39.287Z,87.50
2019-06-26T05:40:21.962Z,87.40
2019-06-26T05:42:50.244Z,87.60
2019-06-26T05:45:21.199Z,87.90
2019-06-26T05:47:51.505Z,88.20
2019-06-26T05:50:21.997Z,89.10
2019-06-26T05:53:01.589Z,88.70
2019-06-26T05:55:26.484Z,88.40
2019-06-26T05:57:56.766Z,89.30
2019-06-26T06:00:29.118Z,89.50
2019-06-26T06:02:59.879Z,88.90
2019-06-26T06:05:30.708Z,89.00
2019-06-26T06:08:01.615Z,88.70
2019-06-26T06:10:38.788Z,88.50
2019-06-26T06:13:09.676Z,88.10
2019-06-26T06:15:41.707Z,88.70
2019-06-26T06:18:11.979Z,90.20
2019-06-26T06:20:47.998Z,90.30
2019-06-26T06:23:20.326Z,90.20
2019-06-26T06:25:52.806Z,89.70
2019-06-26T06:28:23.247Z,90.10
2019-06-26T06:31:03.521Z,89.80
2019-06-26T06:33:29.154Z,89.90
2019-06-26T06:35:59.474Z,89.60
2019-06-26T06:38:30.348Z,89.50
2019-06-26T06:41:01.266Z,89.90
2019-06-26T06:43:32.153Z,89.40
2019-06-26T06:46:02.334Z,89.60
2019-06-26T06:48:34.146Z,90.00
2019-06-26T06:51:06.050Z,89.70
2019-06-26T06:53:36.816Z,89.40
2019-06-26T06:56:07.592Z,89.30
2019-06-26T06:58:38.849Z,89.30
2019-06-26T07:01:10.016Z,89.60
2019-06-26T07:03:40.141Z,90.00
2019-06-26T07:06:10.965Z,90.10
2019-06-26T07:08:43.003Z,90.00
2019-06-26T07:11:14.791Z,90.10
2019-06-26T07:13:48.363Z,90.40
2019-06-26T07:16:20.788Z,90.30
2019-06-26T07:18:51.637Z,90.30
2019-06-26T07:21:21.802Z,90.80
2019-06-26T07:23:52.555Z,90.80
2019-06-26T07:26:26.353Z,90.90
2019-06-26T07:28:58.069Z,90.60
2019-06-26T07:31:28.336Z,90.60
2019-06-26T07:33:59.047Z,90.70
2019-06-26T07:36:29.414Z,90.60
2019-06-26T07:38:59.730Z,90.50
2019-06-26T07:41:29.765Z,90.40
2019-06-26T07:44:01.157Z,90.20
2019-06-26T07:46:31.200Z,90.00
2019-06-26T07:49:01.511Z,90.30
2019-06-26T07:51:31.732Z,90.10
2019-06-26T07:54:01.979Z,90.10
2019-06-26T07:56:32.175Z,90.20
2019-06-26T07:59:02.226Z,90.30
2019-06-26T08:01:32.962Z,90.40
2019-06-26T08:04:03.336Z,90.30
2019-06-26T08:06:33.752Z,90.60
2019-06-26T08:09:06.099Z,90.30
2019-06-26T08:11:36.933Z,89.90
2019-06-26T08:14:07.741Z,90.20
2019-06-26T08:16:38.467Z,89.80
2019-06-26T08:19:09.088Z,89.80
2019-06-26T08:21:39.857Z,88.60
2019-06-26T08:24:10.693Z,88.30
2019-06-26T08:26:41.346Z,88.60
2019-06-26T08:29:13.135Z,88.20
2019-06-26T08:31:43.847Z,88.10
2019-06-26T08:34:14.676Z,88.00
2019-06-26T08:36:45.427Z,88.30
2019-06-26T08:39:17.800Z,88.40
2019-06-26T08:41:54.190Z,88.30
2019-06-26T08:44:22.690Z,88.50
2019-06-26T08:46:53.495Z,88.20
2019-06-26T08:49:25.912Z,88.20
2019-06-26T08:51:56.889Z,87.90
2019-06-26T08:54:29.222Z,88.70
2019-06-26T08:57:01.645Z,87.70
2019-06-26T08:59:32.487Z,87.60
2019-06-26T09:02:03.303Z,87.30
2019-06-26T09:04:34.027Z,87.60
2019-06-26T09:07:04.944Z,87.60
2019-06-26T09:09:35.811Z,87.60
2019-06-26T09:12:08.128Z,87.60
2019-06-26T09:14:38.967Z,87.90
2019-06-26T09:17:09.725Z,87.90
2019-06-26T09:19:42.079Z,88.30
2019-06-26T09:22:12.841Z,88.70
2019-06-26T09:24:45.490Z,88.80
2019-06-26T09:27:17.724Z,88.30
2019-06-26T09:29:48.448Z,88.60
2019-06-26T09:32:19.146Z,88.70
2019-06-26T09:34:50.090Z,90.10
2019-06-26T09:37:21.053Z,90.10
2019-06-26T09:39:51.969Z,89.30
2019-06-26T09:42:23.012Z,89.50
2019-06-26T09:44:54.016Z,88.70
2019-06-26T09:47:24.728Z,89.60
2019-06-26T09:49:55.528Z,89.40
2019-06-26T09:52:26.320Z,89.10
2019-06-26T09:54:57.088Z,89.30
2019-06-26T09:57:29.471Z,88.70
2019-06-26T10:00:04.009Z,89.10
2019-06-26T10:02:36.118Z,87.40
2019-06-26T10:05:07.574Z,87.00
2019-06-26T10:07:38.356Z,86.90
2019-06-26T10:10:10.437Z,84.20
2019-06-26T10:12:43.641Z,84.70
2019-06-26T10:15:14.414Z,85.10
2019-06-26T10:17:46.506Z,82.60
2019-06-26T10:20:18.538Z,83.60
2019-06-26T10:22:49.346Z,82.80
2019-06-26T10:25:36.160Z,83.50
2019-06-26T10:28:17.880Z,84.10
2019-06-26T10:30:40.777Z,84.00
2019-06-26T10:33:13.232Z,83.20
2019-06-26T10:35:45.708Z,81.90
2019-06-26T10:38:16.665Z,82.10
2019-06-26T10:40:48.820Z,82.30
2019-06-26T10:43:21.120Z,81.80
2019-06-26T10:45:54.698Z,80.70
2019-06-26T10:48:41.475Z,80.90
2019-06-26T10:51:07.047Z,80.50
2019-06-26T10:53:39.369Z,78.90
2019-06-26T10:56:11.835Z,79.30
2019-06-26T10:58:42.902Z,77.50
2019-06-26T11:01:22.117Z,78.90
2019-06-26T11:03:49.560Z,75.60
2019-06-26T11:06:23.007Z,76.60
2019-06-26T11:08:56.786Z,75.20
2019-06-26T11:11:28.145Z,75.30
2019-06-26T11:14:03.605Z,77.00
2019-06-26T11:16:38.928Z,75.90
2019-06-26T11:19:13.773Z,77.40
2019-06-26T11:21:47.617Z,76.10
2019-06-26T11:24:35.184Z,75.70
2019-06-26T11:26:56.980Z,76.70
2019-06-26T11:29:34.586Z,77.50
2019-06-26T11:32:09.317Z,76.60
2019-06-26T11:34:42.038Z,77.00
2019-06-26T11:37:16.873Z,76.50
2019-06-26T11:39:49.181Z,74.70
2019-06-26T11:42:23.427Z,74.20
2019-06-26T11:45:00.169Z,73.70
2019-06-26T11:47:31.212Z,75.70
2019-06-26T11:50:13.482Z,74.10
2019-06-26T11:52:49.166Z,74.20
2019-06-26T11:56:37.409Z,72.90
2019-06-26T11:58:28.815Z,73.50
2019-06-26T12:01:00.586Z,72.90
2019-06-26T12:03:40.935Z,74.60
2019-06-26T12:06:19.020Z,73.70
2019-06-26T12:08:45.720Z,74.00
2019-06-26T12:11:25.755Z,73.90
2019-06-26T12:14:04.988Z,73.30
2019-06-26T12:16:44.526Z,74.50
2019-06-26T12:19:31.570Z,75.00
2019-06-26T12:22:08.851Z,73.70
2019-06-26T12:27:34.470Z,72.90
2019-06-26T12:30:18.571Z,72.00
2019-06-26T12:33:03.521Z,73.10
2019-06-26T12:35:47.304Z,73.50
2019-06-26T12:38:21.285Z,72.60
2019-06-26T12:41:07.379Z,73.20
2019-06-26T12:43:40.063Z,73.80
2019-06-26T12:46:19.049Z,72.60
2019-06-26T12:49:06.887Z,71.70
2019-06-26T12:52:04.290Z,72.80
2019-06-26T12:54:19.968Z,71.60
2019-06-26T12:56:51.757Z,72.50
2019-06-26T12:59:22.859Z,72.20
2019-06-26T13:01:53.724Z,72.20
2019-06-26T13:04:31.923Z,72.50
2019-06-26T13:07:00.708Z,72.60
2019-06-26T13:09:34.992Z,72.30
2019-06-26T13:12:20.421Z,72.60
2019-06-26T13:14:52.032Z,73.70
2019-06-26T13:17:29.497Z,73.10
2019-06-26T13:20:17.748Z,73.20
2019-06-26T13:22:55.323Z,72.50
2019-06-26T13:25:27.531Z,72.20
2019-06-26T13:28:10.060Z,73.80
2019-06-26T13:30:40.813Z,71.70
2019-06-26T13:33:30.470Z,72.80
2019-06-26T13:37:10.356Z,73.10
2019-06-26T13:38:33.330Z,72.90
2019-06-26T13:41:14.570Z,73.20
2019-06-26T13:44:02.714Z,73.50
2019-06-26T13:46:24.849Z,73.20
2019-06-26T13:48:59.785Z,72.70
2019-06-26T13:56:16.804Z,73.20
2019-06-26T13:58:21.068Z,74.20
2019-06-26T14:01:00.674Z,73.90
2019-06-26T14:06:38.914Z,73.60
2019-06-26T14:09:40.692Z,73.10
2019-06-26T14:12:25.877Z,72.50
2019-06-26T14:18:42.578Z,72.20
2019-06-26T14:24:16.675Z,71.80
2019-06-26T14:26:58.516Z,72.40
2019-06-26T14:29:34.865Z,71.90
2019-06-26T14:32:08.846Z,71.50
2019-06-26T14:34:44.514Z,70.80
2019-06-26T14:37:19.326Z,71.40
2019-06-26T14:39:57.148Z,71.10
2019-06-26T14:42:31.001Z,70.30
2019-06-26T14:45:21.497Z,71.20
2019-06-26T14:47:50.665Z,70.90
2019-06-26T14:50:22.884Z,70.80
2019-06-26T14:53:01.892Z,71.40
2019-06-26T14:55:33.955Z,70.70
2019-06-26T14:58:06.495Z,70.60
2019-06-26T15:01:02.173Z,70.60
2019-06-26T15:03:14.276Z,70.90
2019-06-26T15:05:49.520Z,70.80
2019-06-26T15:08:20.501Z,70.50
2019-06-26T15:11:03.099Z,70.50
2019-06-26T15:13:33.981Z,70.50
2019-06-26T15:16:05.103Z,70.70
2019-06-26T15:18:38.904Z,70.40
2019-06-26T15:21:12.926Z,70.50
2019-06-26T15:23:46.998Z,70.60
2019-06-26T15:26:21.556Z,70.50
2019-06-26T15:28:58.504Z,70.20
2019-06-26T15:31:30.777Z,70.30
2019-06-26T15:34:06.058Z,70.60
2019-06-26T15:36:40.062Z,70.40
2019-06-26T15:39:12.559Z,70.30
2019-06-26T15:41:49.737Z,70.30
2019-06-26T15:44:24.551Z,70.30
2019-06-26T15:46:55.436Z,70.30
2019-06-26T15:49:26.263Z,70.60
2019-06-26T15:52:15.319Z,70.60
2019-06-26T15:54:45.539Z,70.30
2019-06-26T15:57:17.975Z,70.60
2019-06-26T16:00:01.349Z,70.30
2019-06-26T16:02:37.378Z,70.70
2019-06-26T16:05:11.096Z,70.90
2019-06-26T16:07:42.101Z,70.90
2019-06-26T16:10:13.106Z,70.90
2019-06-26T16:12:43.973Z,70.90
2019-06-26T16:15:21.476Z,71.20
2019-06-26T16:17:57.888Z,71.10
2019-06-26T16:20:33.318Z,71.10
2019-06-26T16:23:07.390Z,71.20
2019-06-26T16:25:40.696Z,70.80
2019-06-26T16:28:13.735Z,71.40
2019-06-26T16:30:47.079Z,71.40
2019-06-26T16:33:17.935Z,71.10
2019-06-26T16:35:51.978Z,71.10
2019-06-26T16:38:24.538Z,71.30
2019-06-26T16:40:55.493Z,71.70
2019-06-26T16:43:44.895Z,71.60
2019-06-26T16:53:35.446Z,71.80
2019-06-26T16:56:37.959Z,72.70
2019-06-26T17:02:22.826Z,72.10
2019-06-26T17:04:56.524Z,71.80
2019-06-26T17:07:38.932Z,72.10
2019-06-26T17:10:24.309Z,72.30
2019-06-26T17:15:41.747Z,71.80
2019-06-26T17:21:37.220Z,72.10
2019-06-26T17:30:44.049Z,72.30
2019-06-26T17:33:55.789Z,72.10
2019-06-26T17:39:32.825Z,71.90
2019-06-26T17:42:10.098Z,72.20
2019-06-26T17:44:41.028Z,72.40
2019-06-26T17:47:11.849Z,72.40
2019-06-26T17:49:44.186Z,72.30
2019-06-26T17:52:14.985Z,72.40
2019-06-26T17:55:01.660Z,72.40
2019-06-26T17:57:50.000Z,72.50
2019-06-26T18:03:57.515Z,72.50
2019-06-26T18:06:46.038Z,72.50
2019-06-26T18:15:18.171Z,72.50
2019-06-26T18:48:40.185Z,70.20
2019-06-26T18:51:16.893Z,70.70
2019-06-26T18:54:00.932Z,70.70
2019-06-26T18:56:31.936Z,70.90
2019-06-26T18:58:57.684Z,70.90
2019-06-26T19:01:30.040Z,71.20
2019-06-26T19:04:07.695Z,71.50
2019-06-26T19:06:36.923Z,71.90
2019-06-26T19:09:10.659Z,72.00
2019-06-26T19:11:41.565Z,71.90
2019-06-26T19:14:17.003Z,72.30
2019-06-26T19:16:48.105Z,72.50
2019-06-26T19:19:18.983Z,72.30
2019-06-26T19:22:00.549Z,72.40
2019-06-26T19:27:52.445Z,72.50
2019-06-26T19:30:30.283Z,72.50
2019-06-26T19:33:06.041Z,72.60
2019-06-26T19:35:40.846Z,72.90
2019-06-26T19:38:18.854Z,72.60
2019-06-26T19:40:48.630Z,73.20
2019-06-26T19:43:19.532Z,72.90
2019-06-26T19:45:50.342Z,73.10
2019-06-26T19:48:21.138Z,73.10
2019-06-26T19:50:54.086Z,73.20
2019-06-26T19:53:26.358Z,73.20
2019-06-26T19:55:57.090Z,73.40
2019-06-26T19:58:35.994Z,73.40
2019-06-26T20:01:01.991Z,73.60
2019-06-26T20:03:34.713Z,73.60
2019-06-26T20:06:05.275Z,73.60
2019-06-26T20:08:48.588Z,73.90
2019-06-26T20:11:19.477Z,73.90
2019-06-26T20:13:51.879Z,73.80
2019-06-26T20:16:25.218Z,73.70
2019-06-26T20:18:58.414Z,73.90
2019-06-26T20:21:30.350Z,73.80
2019-06-26T20:24:01.285Z,74.00
2019-06-26T20:26:32.098Z,73.90
2019-06-26T20:29:05.854Z,74.10
2019-06-26T20:31:38.154Z,74.10
2019-06-26T20:34:09.072Z,74.10
2019-06-26T20:36:40.002Z,74.30
2019-06-26T20:39:12.410Z,74.30
2019-06-26T20:41:43.199Z,74.50
2019-06-26T20:44:14.030Z,74.40
2019-06-26T20:46:46.331Z,74.70
2019-06-26T20:49:20.302Z,74.60
2019-06-26T20:51:51.017Z,74.50
2019-06-26T20:54:23.275Z,74.70
2019-06-26T20:57:02.503Z,74.60
2019-06-26T20:59:26.517Z,74.50
2019-06-26T21:01:57.345Z,74.50
2019-06-26T21:04:28.207Z,74.30
2019-06-26T21:06:59.057Z,74.30
2019-06-26T21:09:29.935Z,74.60
2019-06-26T21:12:00.736Z,74.50
2019-06-26T21:14:35.649Z,74.70
2019-06-26T21:17:06.523Z,74.70
2019-06-26T21:19:38.883Z,74.90
2019-06-26T22:59:10.496Z,77.20
